sensor_id;sensor_type;location;lat;lon;timestamp;P1;durP1;ratioP1;P2;durP2;ratioP2
38853;SDS011;24606;51.992;4.198;2022-07-23T00:03:42;0.65;;;0.50;;
38853;SDS011;24606;51.992;4.198;2022-07-23T00:08:45;1.15;;;0.55;;
38853;SDS011;24606;51.992;4.198;2022-07-23T00:13:47;0.65;;;0.43;;
38853;SDS011;24606;51.992;4.198;2022-07-23T00:18:49;1.35;;;0.50;;
38853;SDS011;24606;51.992;4.198;2022-07-23T00:23:52;0.40;;;0.32;;
38853;SDS011;24606;51.992;4.198;2022-07-23T00:28:54;0.50;;;0.50;;
38853;SDS011;24606;51.992;4.198;2022-07-23T00:33:56;0.63;;;0.60;;
38853;SDS011;24606;51.992;4.198;2022-07-23T00:38:59;1.23;;;0.60;;
38853;SDS011;24606;51.992;4.198;2022-07-23T00:44:19;1.85;;;0.55;;
38853;SDS011;24606;51.992;4.198;2022-07-23T00:49:23;0.70;;;0.60;;
38853;SDS011;24606;51.992;4.198;2022-07-23T00:54:28;2.70;;;0.60;;
38853;SDS011;24606;51.992;4.198;2022-07-23T00:59:30;0.82;;;0.50;;
38853;SDS011;24606;51.992;4.198;2022-07-23T01:04:32;0.70;;;0.50;;
38853;SDS011;24606;51.992;4.198;2022-07-23T01:09:35;0.60;;;0.47;;
38853;SDS011;24606;51.992;4.198;2022-07-23T01:14:38;0.55;;;0.40;;
38853;SDS011;24606;51.992;4.198;2022-07-23T01:19:40;1.10;;;0.50;;
38853;SDS011;24606;51.992;4.198;2022-07-23T01:24:44;0.70;;;0.60;;
38853;SDS011;24606;51.992;4.198;2022-07-23T01:29:45;0.73;;;0.50;;
38853;SDS011;24606;51.992;4.198;2022-07-23T01:34:47;3.90;;;0.50;;
38853;SDS011;24606;51.992;4.198;2022-07-23T01:39:51;0.80;;;0.50;;
38853;SDS011;24606;51.992;4.198;2022-07-23T01:44:53;2.00;;;0.50;;
38853;SDS011;24606;51.992;4.198;2022-07-23T01:49:55;0.60;;;0.40;;
38853;SDS011;24606;51.992;4.198;2022-07-23T01:54:58;0.52;;;0.30;;
38853;SDS011;24606;51.992;4.198;2022-07-23T01:59:59;1.23;;;0.40;;
38853;SDS011;24606;51.992;4.198;2022-07-23T02:05:01;0.50;;;0.50;;
38853;SDS011;24606;51.992;4.198;2022-07-23T02:10:05;0.50;;;0.30;;
38853;SDS011;24606;51.992;4.198;2022-07-23T02:15:08;0.93;;;0.30;;
38853;SDS011;24606;51.992;4.198;2022-07-23T02:20:10;0.60;;;0.40;;
38853;SDS011;24606;51.992;4.198;2022-07-23T02:25:14;0.75;;;0.40;;
38853;SDS011;24606;51.992;4.198;2022-07-23T02:30:16;0.40;;;0.40;;
38853;SDS011;24606;51.992;4.198;2022-07-23T02:35:18;0.68;;;0.47;;
38853;SDS011;24606;51.992;4.198;2022-07-23T02:40:21;0.73;;;0.50;;
38853;SDS011;24606;51.992;4.198;2022-07-23T02:45:23;0.68;;;0.50;;
38853;SDS011;24606;51.992;4.198;2022-07-23T02:50:25;1.30;;;0.60;;
38853;SDS011;24606;51.992;4.198;2022-07-23T02:55:28;0.68;;;0.40;;
38853;SDS011;24606;51.992;4.198;2022-07-23T03:00:31;0.52;;;0.40;;
38853;SDS011;24606;51.992;4.198;2022-07-23T03:05:33;0.80;;;0.40;;
38853;SDS011;24606;51.992;4.198;2022-07-23T03:10:36;1.38;;;0.45;;
38853;SDS011;24606;51.992;4.198;2022-07-23T03:15:38;0.77;;;0.30;;
38853;SDS011;24606;51.992;4.198;2022-07-23T03:20:40;0.38;;;0.38;;
38853;SDS011;24606;51.992;4.198;2022-07-23T03:25:43;0.20;;;0.20;;
38853;SDS011;24606;51.992;4.198;2022-07-23T03:30:47;0.40;;;0.40;;
38853;SDS011;24606;51.992;4.198;2022-07-23T03:35:49;1.95;;;0.85;;
38853;SDS011;24606;51.992;4.198;2022-07-23T03:40:52;0.40;;;0.40;;
38853;SDS011;24606;51.992;4.198;2022-07-23T03:45:54;0.63;;;0.40;;
38853;SDS011;24606;51.992;4.198;2022-07-23T03:50:56;0.82;;;0.50;;
38853;SDS011;24606;51.992;4.198;2022-07-23T03:55:59;0.55;;;0.45;;
38853;SDS011;24606;51.992;4.198;2022-07-23T04:01:01;0.32;;;0.32;;
38853;SDS011;24606;51.992;4.198;2022-07-23T04:06:03;0.50;;;0.40;;
38853;SDS011;24606;51.992;4.198;2022-07-23T04:11:07;0.50;;;0.50;;
38853;SDS011;24606;51.992;4.198;2022-07-23T04:16:09;0.98;;;0.40;;
38853;SDS011;24606;51.992;4.198;2022-07-23T04:21:11;0.30;;;0.30;;
38853;SDS011;24606;51.992;4.198;2022-07-23T04:26:14;0.60;;;0.47;;
38853;SDS011;24606;51.992;4.198;2022-07-23T04:31:16;0.38;;;0.30;;
38853;SDS011;24606;51.992;4.198;2022-07-23T04:36:18;0.68;;;0.40;;
38853;SDS011;24606;51.992;4.198;2022-07-23T04:41:21;1.42;;;0.50;;
38853;SDS011;24606;51.992;4.198;2022-07-23T04:46:23;1.48;;;0.40;;
38853;SDS011;24606;51.992;4.198;2022-07-23T04:51:25;0.80;;;0.50;;
38853;SDS011;24606;51.992;4.198;2022-07-23T04:56:28;0.50;;;0.50;;
38853;SDS011;24606;51.992;4.198;2022-07-23T05:01:30;0.68;;;0.30;;
38853;SDS011;24606;51.992;4.198;2022-07-23T05:06:32;0.82;;;0.60;;
38853;SDS011;24606;51.992;4.198;2022-07-23T05:11:35;0.60;;;0.50;;
38853;SDS011;24606;51.992;4.198;2022-07-23T05:16:37;1.42;;;0.70;;
38853;SDS011;24606;51.992;4.198;2022-07-23T05:21:39;0.35;;;0.35;;
38853;SDS011;24606;51.992;4.198;2022-07-23T05:26:42;0.50;;;0.50;;
38853;SDS011;24606;51.992;4.198;2022-07-23T05:31:44;0.40;;;0.30;;
38853;SDS011;24606;51.992;4.198;2022-07-23T05:36:46;0.60;;;0.40;;
38853;SDS011;24606;51.992;4.198;2022-07-23T05:41:50;0.77;;;0.60;;
38853;SDS011;24606;51.992;4.198;2022-07-23T05:46:52;1.42;;;0.90;;
38853;SDS011;24606;51.992;4.198;2022-07-23T05:51:54;2.83;;;1.50;;
38853;SDS011;24606;51.992;4.198;2022-07-23T05:56:57;2.25;;;1.33;;
38853;SDS011;24606;51.992;4.198;2022-07-23T06:01:59;2.80;;;1.20;;
38853;SDS011;24606;51.992;4.198;2022-07-23T06:07:01;1.83;;;1.23;;
38853;SDS011;24606;51.992;4.198;2022-07-23T06:12:04;2.78;;;1.92;;
38853;SDS011;24606;51.992;4.198;2022-07-23T06:17:07;2.00;;;1.38;;
38853;SDS011;24606;51.992;4.198;2022-07-23T06:22:09;2.10;;;1.52;;
38853;SDS011;24606;51.992;4.198;2022-07-23T06:27:12;3.45;;;2.05;;
38853;SDS011;24606;51.992;4.198;2022-07-23T06:32:14;4.28;;;2.75;;
38853;SDS011;24606;51.992;4.198;2022-07-23T06:37:16;4.40;;;3.03;;
38853;SDS011;24606;51.992;4.198;2022-07-23T06:42:19;5.10;;;3.15;;
38853;SDS011;24606;51.992;4.198;2022-07-23T06:47:21;5.00;;;3.15;;
38853;SDS011;24606;51.992;4.198;2022-07-23T06:52:22;4.32;;;2.92;;
38853;SDS011;24606;51.992;4.198;2022-07-23T06:57:27;3.95;;;2.85;;
38853;SDS011;24606;51.992;4.198;2022-07-23T07:02:29;6.70;;;2.78;;
38853;SDS011;24606;51.992;4.198;2022-07-23T07:07:31;6.50;;;3.45;;
38853;SDS011;24606;51.992;4.198;2022-07-23T07:12:34;7.10;;;3.35;;
38853;SDS011;24606;51.992;4.198;2022-07-23T07:17:36;11.02;;;3.38;;
38853;SDS011;24606;51.992;4.198;2022-07-23T07:22:39;10.88;;;3.75;;
38853;SDS011;24606;51.992;4.198;2022-07-23T07:27:42;10.00;;;4.32;;
38853;SDS011;24606;51.992;4.198;2022-07-23T07:32:45;11.25;;;4.03;;
38853;SDS011;24606;51.992;4.198;2022-07-23T07:37:47;9.57;;;4.50;;
38853;SDS011;24606;51.992;4.198;2022-07-23T07:42:50;13.23;;;4.00;;
38853;SDS011;24606;51.992;4.198;2022-07-23T07:47:53;11.20;;;4.78;;
38853;SDS011;24606;51.992;4.198;2022-07-23T07:52:55;11.20;;;4.20;;
38853;SDS011;24606;51.992;4.198;2022-07-23T07:57:58;11.98;;;4.65;;
38853;SDS011;24606;51.992;4.198;2022-07-23T08:03:00;11.10;;;5.00;;
38853;SDS011;24606;51.992;4.198;2022-07-23T08:08:02;15.10;;;6.05;;
38853;SDS011;24606;51.992;4.198;2022-07-23T08:13:06;18.00;;;7.38;;
38853;SDS011;24606;51.992;4.198;2022-07-23T08:18:08;11.30;;;6.45;;
38853;SDS011;24606;51.992;4.198;2022-07-23T08:23:10;14.13;;;6.20;;
38853;SDS011;24606;51.992;4.198;2022-07-23T08:28:13;16.65;;;6.55;;
38853;SDS011;24606;51.992;4.198;2022-07-23T08:33:16;14.02;;;6.82;;
38853;SDS011;24606;51.992;4.198;2022-07-23T08:38:19;14.13;;;6.35;;
38853;SDS011;24606;51.992;4.198;2022-07-23T08:43:24;13.02;;;6.30;;
38853;SDS011;24606;51.992;4.198;2022-07-23T08:48:28;12.60;;;5.63;;
38853;SDS011;24606;51.992;4.198;2022-07-23T08:53:31;13.73;;;5.53;;
38853;SDS011;24606;51.992;4.198;2022-07-23T08:58:36;11.98;;;5.55;;
38853;SDS011;24606;51.992;4.198;2022-07-23T09:03:39;9.88;;;5.13;;
38853;SDS011;24606;51.992;4.198;2022-07-23T09:08:41;9.27;;;4.50;;
38853;SDS011;24606;51.992;4.198;2022-07-23T09:13:47;6.85;;;2.90;;
38853;SDS011;24606;51.992;4.198;2022-07-23T09:18:51;9.02;;;2.20;;
38853;SDS011;24606;51.992;4.198;2022-07-23T09:23:55;5.63;;;2.22;;
38853;SDS011;24606;51.992;4.198;2022-07-23T09:29:00;5.22;;;1.52;;
38853;SDS011;24606;51.992;4.198;2022-07-23T09:34:08;6.57;;;1.85;;
38853;SDS011;24606;51.992;4.198;2022-07-23T09:39:11;4.18;;;1.17;;
38853;SDS011;24606;51.992;4.198;2022-07-23T09:44:16;5.97;;;1.40;;
38853;SDS011;24606;51.992;4.198;2022-07-23T09:49:20;4.20;;;0.98;;
38853;SDS011;24606;51.992;4.198;2022-07-23T09:54:29;7.72;;;1.00;;
38853;SDS011;24606;51.992;4.198;2022-07-23T09:59:36;5.78;;;1.48;;
38853;SDS011;24606;51.992;4.198;2022-07-23T10:04:38;4.00;;;1.15;;
38853;SDS011;24606;51.992;4.198;2022-07-23T10:09:41;8.50;;;1.50;;
38853;SDS011;24606;51.992;4.198;2022-07-23T10:14:45;5.88;;;1.10;;
38853;SDS011;24606;51.992;4.198;2022-07-23T10:19:48;4.30;;;0.90;;
38853;SDS011;24606;51.992;4.198;2022-07-23T10:24:52;3.78;;;1.00;;
38853;SDS011;24606;51.992;4.198;2022-07-23T10:30:02;3.72;;;1.00;;
38853;SDS011;24606;51.992;4.198;2022-07-23T10:35:08;8.90;;;0.88;;
38853;SDS011;24606;51.992;4.198;2022-07-23T10:40:17;6.00;;;0.73;;
38853;SDS011;24606;51.992;4.198;2022-07-23T10:45:24;6.93;;;1.25;;
38853;SDS011;24606;51.992;4.198;2022-07-23T10:50:28;3.38;;;1.00;;
38853;SDS011;24606;51.992;4.198;2022-07-23T11:01:01;8.63;;;0.98;;
38853;SDS011;24606;51.992;4.198;2022-07-23T11:06:03;5.35;;;1.30;;
38853;SDS011;24606;51.992;4.198;2022-07-23T11:11:09;6.45;;;1.20;;
38853;SDS011;24606;51.992;4.198;2022-07-23T11:16:14;4.55;;;1.13;;
38853;SDS011;24606;51.992;4.198;2022-07-23T11:32:07;3.30;;;0.70;;
38853;SDS011;24606;51.992;4.198;2022-07-23T11:37:29;6.85;;;1.30;;
38853;SDS011;24606;51.992;4.198;2022-07-23T11:42:35;7.38;;;1.60;;
38853;SDS011;24606;51.992;4.198;2022-07-23T11:47:39;2.88;;;1.10;;
38853;SDS011;24606;51.992;4.198;2022-07-23T11:52:41;3.47;;;0.73;;
38853;SDS011;24606;51.992;4.198;2022-07-23T11:57:43;1.83;;;0.73;;
38853;SDS011;24606;51.992;4.198;2022-07-23T12:02:47;3.45;;;0.77;;
38853;SDS011;24606;51.992;4.198;2022-07-23T12:07:51;9.13;;;1.05;;
38853;SDS011;24606;51.992;4.198;2022-07-23T12:12:54;5.50;;;1.02;;
38853;SDS011;24606;51.992;4.198;2022-07-23T12:18:00;4.53;;;1.35;;
38853;SDS011;24606;51.992;4.198;2022-07-23T12:23:03;2.70;;;0.70;;
38853;SDS011;24606;51.992;4.198;2022-07-23T12:28:08;2.13;;;0.60;;
38853;SDS011;24606;51.992;4.198;2022-07-23T12:33:13;3.53;;;0.88;;
38853;SDS011;24606;51.992;4.198;2022-07-23T12:38:22;4.43;;;1.23;;
38853;SDS011;24606;51.992;4.198;2022-07-23T12:43:26;4.85;;;1.15;;
38853;SDS011;24606;51.992;4.198;2022-07-23T12:48:30;2.78;;;1.13;;
38853;SDS011;24606;51.992;4.198;2022-07-23T12:53:36;1.45;;;0.80;;
38853;SDS011;24606;51.992;4.198;2022-07-23T12:58:43;1.13;;;0.60;;
38853;SDS011;24606;51.992;4.198;2022-07-23T13:03:55;3.30;;;1.25;;
38853;SDS011;24606;51.992;4.198;2022-07-23T13:08:59;3.75;;;1.10;;
38853;SDS011;24606;51.992;4.198;2022-07-23T13:14:02;1.00;;;0.65;;
38853;SDS011;24606;51.992;4.198;2022-07-23T13:19:05;0.75;;;0.55;;
38853;SDS011;24606;51.992;4.198;2022-07-23T13:24:07;1.83;;;0.88;;
38853;SDS011;24606;51.992;4.198;2022-07-23T13:29:10;2.67;;;0.85;;
38853;SDS011;24606;51.992;4.198;2022-07-23T13:34:13;4.10;;;1.48;;
38853;SDS011;24606;51.992;4.198;2022-07-23T13:39:15;4.75;;;1.20;;
38853;SDS011;24606;51.992;4.198;2022-07-23T13:44:18;4.65;;;0.65;;
38853;SDS011;24606;51.992;4.198;2022-07-23T13:49:21;4.30;;;0.70;;
38853;SDS011;24606;51.992;4.198;2022-07-23T13:54:23;2.58;;;0.70;;
38853;SDS011;24606;51.992;4.198;2022-07-23T13:59:24;1.38;;;0.75;;
38853;SDS011;24606;51.992;4.198;2022-07-23T14:04:28;1.65;;;0.73;;
38853;SDS011;24606;51.992;4.198;2022-07-23T14:09:30;1.90;;;0.95;;
38853;SDS011;24606;51.992;4.198;2022-07-23T14:14:34;1.42;;;0.77;;
38853;SDS011;24606;51.992;4.198;2022-07-23T14:19:37;4.57;;;0.68;;
38853;SDS011;24606;51.992;4.198;2022-07-23T14:24:39;2.83;;;0.95;;
38853;SDS011;24606;51.992;4.198;2022-07-23T14:29:42;2.58;;;1.10;;
38853;SDS011;24606;51.992;4.198;2022-07-23T14:34:45;0.82;;;0.52;;
38853;SDS011;24606;51.992;4.198;2022-07-23T14:39:47;4.18;;;1.02;;
38853;SDS011;24606;51.992;4.198;2022-07-23T14:44:49;8.13;;;1.75;;
38853;SDS011;24606;51.992;4.198;2022-07-23T14:49:52;3.50;;;1.75;;
38853;SDS011;24606;51.992;4.198;2022-07-23T14:54:54;1.60;;;0.90;;
38853;SDS011;24606;51.992;4.198;2022-07-23T14:59:56;2.70;;;1.10;;
38853;SDS011;24606;51.992;4.198;2022-07-23T15:04:59;2.15;;;0.70;;
38853;SDS011;24606;51.992;4.198;2022-07-23T15:10:02;0.95;;;0.70;;
38853;SDS011;24606;51.992;4.198;2022-07-23T15:15:05;2.75;;;1.40;;
38853;SDS011;24606;51.992;4.198;2022-07-23T15:20:09;2.53;;;0.85;;
38853;SDS011;24606;51.992;4.198;2022-07-23T15:25:11;0.60;;;0.60;;
38853;SDS011;24606;51.992;4.198;2022-07-23T15:30:13;1.45;;;0.68;;
38853;SDS011;24606;51.992;4.198;2022-07-23T15:35:16;1.48;;;0.68;;
38853;SDS011;24606;51.992;4.198;2022-07-23T15:40:19;1.27;;;0.70;;
38853;SDS011;24606;51.992;4.198;2022-07-23T15:45:20;1.05;;;0.88;;
38853;SDS011;24606;51.992;4.198;2022-07-23T15:50:24;0.80;;;0.80;;
38853;SDS011;24606;51.992;4.198;2022-07-23T15:55:26;0.85;;;0.68;;
38853;SDS011;24606;51.992;4.198;2022-07-23T16:00:28;0.88;;;0.70;;
38853;SDS011;24606;51.992;4.198;2022-07-23T16:05:31;2.05;;;0.57;;
38853;SDS011;24606;51.992;4.198;2022-07-23T16:10:33;1.02;;;0.60;;
38853;SDS011;24606;51.992;4.198;2022-07-23T16:15:36;0.90;;;0.60;;
38853;SDS011;24606;51.992;4.198;2022-07-23T16:20:39;1.20;;;0.90;;
38853;SDS011;24606;51.992;4.198;2022-07-23T16:25:41;1.35;;;1.10;;
38853;SDS011;24606;51.992;4.198;2022-07-23T16:30:43;1.48;;;1.00;;
38853;SDS011;24606;51.992;4.198;2022-07-23T16:35:47;4.32;;;2.63;;
38853;SDS011;24606;51.992;4.198;2022-07-23T16:40:49;3.15;;;1.95;;
38853;SDS011;24606;51.992;4.198;2022-07-23T16:45:51;5.75;;;3.58;;
38853;SDS011;24606;51.992;4.198;2022-07-23T16:50:54;4.05;;;1.98;;
38853;SDS011;24606;51.992;4.198;2022-07-23T16:55:56;3.50;;;2.30;;
38853;SDS011;24606;51.992;4.198;2022-07-23T17:00:58;2.92;;;2.20;;
38853;SDS011;24606;51.992;4.198;2022-07-23T17:06:01;4.07;;;2.03;;
38853;SDS011;24606;51.992;4.198;2022-07-23T17:11:03;3.35;;;2.20;;
38853;SDS011;24606;51.992;4.198;2022-07-23T17:16:05;6.70;;;3.45;;
38853;SDS011;24606;51.992;4.198;2022-07-23T17:21:08;3.10;;;1.83;;
38853;SDS011;24606;51.992;4.198;2022-07-23T17:26:10;5.22;;;3.88;;
38853;SDS011;24606;51.992;4.198;2022-07-23T17:31:12;3.13;;;2.30;;
38853;SDS011;24606;51.992;4.198;2022-07-23T17:36:16;2.75;;;2.05;;
38853;SDS011;24606;51.992;4.198;2022-07-23T17:41:18;3.72;;;1.95;;
38853;SDS011;24606;51.992;4.198;2022-07-23T17:46:20;3.10;;;2.10;;
38853;SDS011;24606;51.992;4.198;2022-07-23T17:51:23;3.05;;;2.22;;
38853;SDS011;24606;51.992;4.198;2022-07-23T17:56:25;3.33;;;2.50;;
38853;SDS011;24606;51.992;4.198;2022-07-23T18:01:27;10.25;;;4.50;;
38853;SDS011;24606;51.992;4.198;2022-07-23T18:06:31;2.50;;;2.10;;
38853;SDS011;24606;51.992;4.198;2022-07-23T18:11:33;2.33;;;2.10;;
38853;SDS011;24606;51.992;4.198;2022-07-23T18:16:36;2.25;;;1.85;;
38853;SDS011;24606;51.992;4.198;2022-07-23T18:21:40;3.05;;;2.63;;
38853;SDS011;24606;51.992;4.198;2022-07-23T18:26:41;1.92;;;1.63;;
38853;SDS011;24606;51.992;4.198;2022-07-23T18:31:43;2.58;;;1.90;;
38853;SDS011;24606;51.992;4.198;2022-07-23T18:36:47;2.05;;;1.67;;
38853;SDS011;24606;51.992;4.198;2022-07-23T18:41:49;2.08;;;1.88;;
38853;SDS011;24606;51.992;4.198;2022-07-23T18:46:51;2.08;;;1.70;;
38853;SDS011;24606;51.992;4.198;2022-07-23T18:51:54;2.72;;;1.80;;
38853;SDS011;24606;51.992;4.198;2022-07-23T18:56:56;2.60;;;1.88;;
38853;SDS011;24606;51.992;4.198;2022-07-23T19:01:57;2.35;;;1.70;;
38853;SDS011;24606;51.992;4.198;2022-07-23T19:07:01;2.88;;;1.55;;
38853;SDS011;24606;51.992;4.198;2022-07-23T19:12:03;2.22;;;2.03;;
38853;SDS011;24606;51.992;4.198;2022-07-23T19:17:05;2.38;;;1.75;;
38853;SDS011;24606;51.992;4.198;2022-07-23T19:22:09;1.60;;;1.50;;
38853;SDS011;24606;51.992;4.198;2022-07-23T19:27:11;2.58;;;1.70;;
38853;SDS011;24606;51.992;4.198;2022-07-23T19:32:13;1.73;;;1.52;;
38853;SDS011;24606;51.992;4.198;2022-07-23T19:37:16;2.13;;;1.70;;
38853;SDS011;24606;51.992;4.198;2022-07-23T19:42:18;1.92;;;1.50;;
38853;SDS011;24606;51.992;4.198;2022-07-23T19:47:20;2.60;;;1.60;;
38853;SDS011;24606;51.992;4.198;2022-07-23T19:52:23;1.92;;;1.73;;
38853;SDS011;24606;51.992;4.198;2022-07-23T19:57:25;2.08;;;1.80;;
38853;SDS011;24606;51.992;4.198;2022-07-23T20:02:27;3.53;;;2.10;;
38853;SDS011;24606;51.992;4.198;2022-07-23T20:07:30;4.38;;;2.00;;
38853;SDS011;24606;51.992;4.198;2022-07-23T20:12:32;6.28;;;2.40;;
38853;SDS011;24606;51.992;4.198;2022-07-23T20:17:34;5.35;;;2.53;;
38853;SDS011;24606;51.992;4.198;2022-07-23T20:22:38;3.83;;;2.40;;
38853;SDS011;24606;51.992;4.198;2022-07-23T20:27:39;3.90;;;2.40;;
38853;SDS011;24606;51.992;4.198;2022-07-23T20:32:41;7.95;;;3.08;;
38853;SDS011;24606;51.992;4.198;2022-07-23T20:37:54;7.88;;;3.10;;
38853;SDS011;24606;51.992;4.198;2022-07-23T20:42:58;5.75;;;2.88;;
38853;SDS011;24606;51.992;4.198;2022-07-23T20:48:00;6.53;;;2.80;;
38853;SDS011;24606;51.992;4.198;2022-07-23T20:53:03;10.23;;;3.10;;
38853;SDS011;24606;51.992;4.198;2022-07-23T20:58:05;13.00;;;3.55;;
38853;SDS011;24606;51.992;4.198;2022-07-23T21:03:07;15.90;;;3.80;;
38853;SDS011;24606;51.992;4.198;2022-07-23T21:08:12;16.92;;;3.92;;
38853;SDS011;24606;51.992;4.198;2022-07-23T21:13:14;9.50;;;3.35;;
38853;SDS011;24606;51.992;4.198;2022-07-23T21:18:16;13.40;;;3.78;;
38853;SDS011;24606;51.992;4.198;2022-07-23T21:23:19;6.60;;;3.05;;
38853;SDS011;24606;51.992;4.198;2022-07-23T21:28:21;7.53;;;3.05;;
38853;SDS011;24606;51.992;4.198;2022-07-23T21:33:23;5.00;;;3.13;;
38853;SDS011;24606;51.992;4.198;2022-07-23T21:38:26;5.97;;;3.13;;
38853;SDS011;24606;51.992;4.198;2022-07-23T21:43:28;6.40;;;2.53;;
38853;SDS011;24606;51.992;4.198;2022-07-23T21:48:30;8.98;;;3.28;;
38853;SDS011;24606;51.992;4.198;2022-07-23T21:53:33;6.68;;;2.58;;
38853;SDS011;24606;51.992;4.198;2022-07-23T21:58:35;5.25;;;2.60;;
38853;SDS011;24606;51.992;4.198;2022-07-23T22:03:37;4.43;;;2.40;;
38853;SDS011;24606;51.992;4.198;2022-07-23T22:08:40;3.72;;;2.70;;
38853;SDS011;24606;51.992;4.198;2022-07-23T22:13:42;4.82;;;2.70;;
38853;SDS011;24606;51.992;4.198;2022-07-23T22:18:44;3.75;;;2.45;;
38853;SDS011;24606;51.992;4.198;2022-07-23T22:23:47;3.65;;;2.80;;
38853;SDS011;24606;51.992;4.198;2022-07-23T22:28:49;3.05;;;2.45;;
38853;SDS011;24606;51.992;4.198;2022-07-23T22:33:51;4.82;;;2.97;;
38853;SDS011;24606;51.992;4.198;2022-07-23T22:38:54;2.75;;;2.55;;
38853;SDS011;24606;51.992;4.198;2022-07-23T22:43:56;5.93;;;4.32;;
38853;SDS011;24606;51.992;4.198;2022-07-23T22:48:58;4.57;;;2.45;;
38853;SDS011;24606;51.992;4.198;2022-07-23T22:54:01;3.05;;;2.33;;
38853;SDS011;24606;51.992;4.198;2022-07-23T22:59:03;2.92;;;2.33;;
38853;SDS011;24606;51.992;4.198;2022-07-23T23:04:05;3.35;;;2.50;;
38853;SDS011;24606;51.992;4.198;2022-07-23T23:09:08;3.05;;;2.30;;
38853;SDS011;24606;51.992;4.198;2022-07-23T23:14:10;2.63;;;2.22;;
38853;SDS011;24606;51.992;4.198;2022-07-23T23:19:12;4.28;;;2.63;;
38853;SDS011;24606;51.992;4.198;2022-07-23T23:24:15;3.38;;;2.55;;
38853;SDS011;24606;51.992;4.198;2022-07-23T23:29:17;3.15;;;2.60;;
38853;SDS011;24606;51.992;4.198;2022-07-23T23:34:19;2.55;;;2.35;;
38853;SDS011;24606;51.992;4.198;2022-07-23T23:39:22;2.65;;;2.30;;
38853;SDS011;24606;51.992;4.198;2022-07-23T23:44:24;2.40;;;2.20;;
38853;SDS011;24606;51.992;4.198;2022-07-23T23:49:26;2.60;;;2.33;;
38853;SDS011;24606;51.992;4.198;2022-07-23T23:54:29;3.20;;;2.30;;
38853;SDS011;24606;51.992;4.198;2022-07-23T23:59:32;3.30;;;2.40;;
